sensor_id;sensor_type;location;lat;lon;timestamp;P1;durP1;ratioP1;P2;durP2;ratioP2
30149;SDS011;16962;48.646;9.026;2023-07-20T00:01:41;6.05;;;3.03;;
30149;SDS011;16962;48.646;9.026;2023-07-20T00:04:31;6.72;;;2.85;;
30149;SDS011;16962;48.646;9.026;2023-07-20T00:07:19;5.97;;;2.65;;
30149;SDS011;16962;48.646;9.026;2023-07-20T00:10:09;6.10;;;3.20;;
30149;SDS011;16962;48.646;9.026;2023-07-20T00:12:56;7.15;;;2.72;;
30149;SDS011;16962;48.646;9.026;2023-07-20T00:15:46;7.75;;;2.97;;
30149;SDS011;16962;48.646;9.026;2023-07-20T00:18:36;4.53;;;2.95;;
30149;SDS011;16962;48.646;9.026;2023-07-20T00:21:23;4.13;;;2.50;;
30149;SDS011;16962;48.646;9.026;2023-07-20T00:24:20;4.63;;;2.80;;
30149;SDS011;16962;48.646;9.026;2023-07-20T00:27:07;6.30;;;2.85;;
30149;SDS011;16962;48.646;9.026;2023-07-20T00:29:55;9.05;;;3.15;;
30149;SDS011;16962;48.646;9.026;2023-07-20T00:32:43;3.88;;;2.53;;
30149;SDS011;16962;48.646;9.026;2023-07-20T00:35:30;3.80;;;2.55;;
30149;SDS011;16962;48.646;9.026;2023-07-20T00:38:17;5.50;;;2.90;;
30149;SDS011;16962;48.646;9.026;2023-07-20T00:41:07;4.82;;;3.15;;
30149;SDS011;16962;48.646;9.026;2023-07-20T00:43:55;7.40;;;3.33;;
30149;SDS011;16962;48.646;9.026;2023-07-20T00:46:43;6.55;;;3.10;;
30149;SDS011;16962;48.646;9.026;2023-07-20T00:49:31;6.22;;;2.80;;
30149;SDS011;16962;48.646;9.026;2023-07-20T00:52:19;6.10;;;2.60;;
30149;SDS011;16962;48.646;9.026;2023-07-20T00:55:08;6.82;;;3.03;;
30149;SDS011;16962;48.646;9.026;2023-07-20T00:58:00;6.97;;;2.72;;
30149;SDS011;16962;48.646;9.026;2023-07-20T01:00:48;4.88;;;2.90;;
30149;SDS011;16962;48.646;9.026;2023-07-20T01:03:35;4.47;;;2.75;;
30149;SDS011;16962;48.646;9.026;2023-07-20T01:09:23;5.65;;;2.95;;
30149;SDS011;16962;48.646;9.026;2023-07-20T01:12:22;8.30;;;2.88;;
30149;SDS011;16962;48.646;9.026;2023-07-20T01:15:14;4.45;;;2.88;;
30149;SDS011;16962;48.646;9.026;2023-07-20T01:18:01;5.20;;;2.83;;
30149;SDS011;16962;48.646;9.026;2023-07-20T01:20:51;10.68;;;3.53;;
30149;SDS011;16962;48.646;9.026;2023-07-20T01:30:22;9.50;;;3.05;;
30149;SDS011;16962;48.646;9.026;2023-07-20T01:33:27;3.88;;;2.90;;
30149;SDS011;16962;48.646;9.026;2023-07-20T01:36:18;8.77;;;3.33;;
30149;SDS011;16962;48.646;9.026;2023-07-20T01:39:06;5.53;;;2.55;;
30149;SDS011;16962;48.646;9.026;2023-07-20T01:41:55;3.70;;;2.55;;
30149;SDS011;16962;48.646;9.026;2023-07-20T01:44:43;3.60;;;2.78;;
30149;SDS011;16962;48.646;9.026;2023-07-20T01:47:31;4.82;;;2.65;;
30149;SDS011;16962;48.646;9.026;2023-07-20T01:50:21;5.95;;;3.13;;
30149;SDS011;16962;48.646;9.026;2023-07-20T01:53:09;5.53;;;2.83;;
30149;SDS011;16962;48.646;9.026;2023-07-20T01:55:56;12.68;;;3.10;;
30149;SDS011;16962;48.646;9.026;2023-07-20T01:58:44;5.82;;;2.90;;
30149;SDS011;16962;48.646;9.026;2023-07-20T02:01:32;6.32;;;2.90;;
30149;SDS011;16962;48.646;9.026;2023-07-20T02:04:21;9.55;;;3.00;;
30149;SDS011;16962;48.646;9.026;2023-07-20T02:07:08;7.80;;;3.05;;
30149;SDS011;16962;48.646;9.026;2023-07-20T02:09:56;5.07;;;2.75;;
30149;SDS011;16962;48.646;9.026;2023-07-20T02:12:43;6.90;;;3.00;;
30149;SDS011;16962;48.646;9.026;2023-07-20T02:15:32;7.50;;;3.13;;
30149;SDS011;16962;48.646;9.026;2023-07-20T02:18:19;4.75;;;2.75;;
30149;SDS011;16962;48.646;9.026;2023-07-20T02:21:06;4.40;;;3.08;;
30149;SDS011;16962;48.646;9.026;2023-07-20T02:23:53;8.23;;;3.25;;
30149;SDS011;16962;48.646;9.026;2023-07-20T02:26:41;7.43;;;3.67;;
30149;SDS011;16962;48.646;9.026;2023-07-20T02:29:29;6.72;;;3.25;;
30149;SDS011;16962;48.646;9.026;2023-07-20T02:32:16;8.38;;;3.08;;
30149;SDS011;16962;48.646;9.026;2023-07-20T02:35:03;8.95;;;3.30;;
30149;SDS011;16962;48.646;9.026;2023-07-20T02:37:51;4.80;;;2.67;;
30149;SDS011;16962;48.646;9.026;2023-07-20T02:40:39;8.00;;;3.05;;
30149;SDS011;16962;48.646;9.026;2023-07-20T02:43:26;5.05;;;2.92;;
30149;SDS011;16962;48.646;9.026;2023-07-20T02:46:16;6.82;;;3.42;;
30149;SDS011;16962;48.646;9.026;2023-07-20T02:49:03;5.10;;;3.40;;
30149;SDS011;16962;48.646;9.026;2023-07-20T02:51:51;4.25;;;2.83;;
30149;SDS011;16962;48.646;9.026;2023-07-20T02:54:38;6.10;;;3.25;;
30149;SDS011;16962;48.646;9.026;2023-07-20T02:57:26;5.55;;;3.30;;
30149;SDS011;16962;48.646;9.026;2023-07-20T03:00:16;6.95;;;2.97;;
30149;SDS011;16962;48.646;9.026;2023-07-20T03:03:04;7.13;;;3.50;;
30149;SDS011;16962;48.646;9.026;2023-07-20T03:05:56;4.75;;;3.15;;
30149;SDS011;16962;48.646;9.026;2023-07-20T03:08:46;4.65;;;3.22;;
30149;SDS011;16962;48.646;9.026;2023-07-20T03:11:35;7.53;;;3.17;;
30149;SDS011;16962;48.646;9.026;2023-07-20T03:14:23;5.72;;;3.40;;
30149;SDS011;16962;48.646;9.026;2023-07-20T03:17:10;5.57;;;2.95;;
30149;SDS011;16962;48.646;9.026;2023-07-20T03:19:58;6.40;;;3.00;;
30149;SDS011;16962;48.646;9.026;2023-07-20T03:22:46;6.00;;;3.05;;
30149;SDS011;16962;48.646;9.026;2023-07-20T03:25:34;7.20;;;3.22;;
30149;SDS011;16962;48.646;9.026;2023-07-20T03:28:24;4.82;;;2.92;;
30149;SDS011;16962;48.646;9.026;2023-07-20T03:31:13;5.25;;;3.28;;
30149;SDS011;16962;48.646;9.026;2023-07-20T03:34:01;8.85;;;3.60;;
30149;SDS011;16962;48.646;9.026;2023-07-20T03:36:50;5.15;;;3.80;;
30149;SDS011;16962;48.646;9.026;2023-07-20T03:39:37;4.10;;;3.22;;
30149;SDS011;16962;48.646;9.026;2023-07-20T03:42:29;5.82;;;3.60;;
30149;SDS011;16962;48.646;9.026;2023-07-20T03:45:16;7.20;;;3.70;;
30149;SDS011;16962;48.646;9.026;2023-07-20T03:48:08;6.10;;;3.97;;
30149;SDS011;16962;48.646;9.026;2023-07-20T03:50:58;9.90;;;3.65;;
30149;SDS011;16962;48.646;9.026;2023-07-20T03:53:46;5.28;;;3.17;;
30149;SDS011;16962;48.646;9.026;2023-07-20T03:56:36;6.20;;;3.50;;
30149;SDS011;16962;48.646;9.026;2023-07-20T03:59:23;5.00;;;3.20;;
30149;SDS011;16962;48.646;9.026;2023-07-20T04:06:19;10.38;;;3.75;;
30149;SDS011;16962;48.646;9.026;2023-07-20T04:09:07;7.22;;;4.00;;
30149;SDS011;16962;48.646;9.026;2023-07-20T04:11:54;7.70;;;3.38;;
30149;SDS011;16962;48.646;9.026;2023-07-20T04:14:42;7.55;;;3.78;;
30149;SDS011;16962;48.646;9.026;2023-07-20T04:17:30;10.02;;;3.20;;
30149;SDS011;16962;48.646;9.026;2023-07-20T04:20:17;4.82;;;3.08;;
30149;SDS011;16962;48.646;9.026;2023-07-20T04:23:04;7.55;;;3.08;;
30149;SDS011;16962;48.646;9.026;2023-07-20T04:25:54;6.85;;;2.95;;
30149;SDS011;16962;48.646;9.026;2023-07-20T04:28:41;4.05;;;2.70;;
30149;SDS011;16962;48.646;9.026;2023-07-20T04:31:31;7.30;;;3.40;;
30149;SDS011;16962;48.646;9.026;2023-07-20T04:34:28;6.72;;;2.92;;
30149;SDS011;16962;48.646;9.026;2023-07-20T04:37:15;4.97;;;3.00;;
30149;SDS011;16962;48.646;9.026;2023-07-20T04:40:05;4.78;;;2.90;;
30149;SDS011;16962;48.646;9.026;2023-07-20T04:42:53;4.90;;;3.10;;
30149;SDS011;16962;48.646;9.026;2023-07-20T04:45:41;8.48;;;2.90;;
30149;SDS011;16962;48.646;9.026;2023-07-20T04:48:28;3.92;;;2.53;;
30149;SDS011;16962;48.646;9.026;2023-07-20T04:51:20;3.97;;;2.92;;
30149;SDS011;16962;48.646;9.026;2023-07-20T04:54:09;3.67;;;2.63;;
30149;SDS011;16962;48.646;9.026;2023-07-20T04:56:56;6.63;;;2.72;;
30149;SDS011;16962;48.646;9.026;2023-07-20T04:59:46;5.15;;;2.90;;
30149;SDS011;16962;48.646;9.026;2023-07-20T05:02:35;5.82;;;2.72;;
30149;SDS011;16962;48.646;9.026;2023-07-20T05:05:23;6.03;;;2.80;;
30149;SDS011;16962;48.646;9.026;2023-07-20T05:08:11;12.48;;;7.60;;
30149;SDS011;16962;48.646;9.026;2023-07-20T05:11:00;8.55;;;3.60;;
30149;SDS011;16962;48.646;9.026;2023-07-20T05:13:48;8.40;;;2.95;;
30149;SDS011;16962;48.646;9.026;2023-07-20T05:16:35;5.75;;;2.58;;
30149;SDS011;16962;48.646;9.026;2023-07-20T05:19:24;5.63;;;2.83;;
30149;SDS011;16962;48.646;9.026;2023-07-20T05:22:13;3.97;;;2.55;;
30149;SDS011;16962;48.646;9.026;2023-07-20T05:25:01;4.47;;;2.50;;
30149;SDS011;16962;48.646;9.026;2023-07-20T05:27:48;9.60;;;2.97;;
30149;SDS011;16962;48.646;9.026;2023-07-20T05:30:37;5.07;;;2.50;;
30149;SDS011;16962;48.646;9.026;2023-07-20T05:33:24;6.53;;;2.50;;
30149;SDS011;16962;48.646;9.026;2023-07-20T05:36:15;4.22;;;2.85;;
30149;SDS011;16962;48.646;9.026;2023-07-20T05:39:03;5.05;;;2.50;;
30149;SDS011;16962;48.646;9.026;2023-07-20T05:41:52;6.90;;;2.80;;
30149;SDS011;16962;48.646;9.026;2023-07-20T05:44:40;6.57;;;2.55;;
30149;SDS011;16962;48.646;9.026;2023-07-20T05:47:29;4.03;;;2.42;;
30149;SDS011;16962;48.646;9.026;2023-07-20T05:50:20;6.35;;;2.55;;
30149;SDS011;16962;48.646;9.026;2023-07-20T05:53:09;7.15;;;2.95;;
30149;SDS011;16962;48.646;9.026;2023-07-20T05:55:56;5.28;;;2.60;;
30149;SDS011;16962;48.646;9.026;2023-07-20T05:58:46;4.80;;;2.65;;
30149;SDS011;16962;48.646;9.026;2023-07-20T06:01:33;4.78;;;2.38;;
30149;SDS011;16962;48.646;9.026;2023-07-20T06:04:21;5.57;;;2.55;;
30149;SDS011;16962;48.646;9.026;2023-07-20T06:07:09;6.78;;;2.70;;
30149;SDS011;16962;48.646;9.026;2023-07-20T06:09:56;7.75;;;2.53;;
30149;SDS011;16962;48.646;9.026;2023-07-20T06:12:45;9.27;;;2.67;;
30149;SDS011;16962;48.646;9.026;2023-07-20T06:15:35;9.95;;;2.95;;
30149;SDS011;16962;48.646;9.026;2023-07-20T06:18:23;8.45;;;2.70;;
30149;SDS011;16962;48.646;9.026;2023-07-20T06:21:10;4.80;;;2.35;;
30149;SDS011;16962;48.646;9.026;2023-07-20T06:23:59;8.02;;;2.22;;
30149;SDS011;16962;48.646;9.026;2023-07-20T06:26:49;4.70;;;2.30;;
30149;SDS011;16962;48.646;9.026;2023-07-20T06:29:39;2.83;;;1.90;;
30149;SDS011;16962;48.646;9.026;2023-07-20T06:32:29;4.68;;;2.30;;
30149;SDS011;16962;48.646;9.026;2023-07-20T06:35:17;8.05;;;2.15;;
30149;SDS011;16962;48.646;9.026;2023-07-20T06:38:04;6.88;;;2.53;;
30149;SDS011;16962;48.646;9.026;2023-07-20T06:40:55;5.13;;;2.20;;
30149;SDS011;16962;48.646;9.026;2023-07-20T06:43:42;6.10;;;2.50;;
30149;SDS011;16962;48.646;9.026;2023-07-20T06:46:34;4.50;;;2.88;;
30149;SDS011;16962;48.646;9.026;2023-07-20T06:49:26;4.60;;;2.20;;
30149;SDS011;16962;48.646;9.026;2023-07-20T06:52:16;5.57;;;2.50;;
30149;SDS011;16962;48.646;9.026;2023-07-20T06:55:04;5.78;;;2.65;;
30149;SDS011;16962;48.646;9.026;2023-07-20T06:57:53;4.28;;;2.47;;
30149;SDS011;16962;48.646;9.026;2023-07-20T07:04:31;7.18;;;2.53;;
30149;SDS011;16962;48.646;9.026;2023-07-20T07:07:48;7.40;;;2.80;;
30149;SDS011;16962;48.646;9.026;2023-07-20T07:10:41;4.63;;;1.95;;
30149;SDS011;16962;48.646;9.026;2023-07-20T07:13:34;6.10;;;2.67;;
30149;SDS011;16962;48.646;9.026;2023-07-20T07:16:37;5.60;;;2.25;;
30149;SDS011;16962;48.646;9.026;2023-07-20T07:19:29;8.68;;;2.60;;
30149;SDS011;16962;48.646;9.026;2023-07-20T07:22:27;6.07;;;2.33;;
30149;SDS011;16962;48.646;9.026;2023-07-20T07:25:19;5.88;;;2.22;;
30149;SDS011;16962;48.646;9.026;2023-07-20T07:31:07;5.40;;;2.50;;
30149;SDS011;16962;48.646;9.026;2023-07-20T07:34:02;5.78;;;2.47;;
30149;SDS011;16962;48.646;9.026;2023-07-20T07:36:51;4.00;;;2.42;;
30149;SDS011;16962;48.646;9.026;2023-07-20T07:39:39;3.75;;;2.35;;
30149;SDS011;16962;48.646;9.026;2023-07-20T07:42:28;6.68;;;2.10;;
30149;SDS011;16962;48.646;9.026;2023-07-20T07:45:19;7.90;;;2.80;;
30149;SDS011;16962;48.646;9.026;2023-07-20T07:48:07;4.53;;;2.45;;
30149;SDS011;16962;48.646;9.026;2023-07-20T07:50:58;5.05;;;2.50;;
30149;SDS011;16962;48.646;9.026;2023-07-20T07:53:46;5.47;;;2.67;;
30149;SDS011;16962;48.646;9.026;2023-07-20T07:56:33;6.25;;;2.65;;
30149;SDS011;16962;48.646;9.026;2023-07-20T07:59:21;5.75;;;2.60;;
30149;SDS011;16962;48.646;9.026;2023-07-20T08:02:09;4.90;;;2.47;;
30149;SDS011;16962;48.646;9.026;2023-07-20T08:04:58;5.85;;;2.22;;
30149;SDS011;16962;48.646;9.026;2023-07-20T08:07:53;5.20;;;2.30;;
30149;SDS011;16962;48.646;9.026;2023-07-20T08:10:41;6.25;;;2.28;;
30149;SDS011;16962;48.646;9.026;2023-07-20T08:17:33;6.93;;;2.30;;
30149;SDS011;16962;48.646;9.026;2023-07-20T08:20:23;5.28;;;2.70;;
30149;SDS011;16962;48.646;9.026;2023-07-20T08:23:17;4.60;;;2.20;;
30149;SDS011;16962;48.646;9.026;2023-07-20T08:26:07;4.07;;;1.90;;
30149;SDS011;16962;48.646;9.026;2023-07-20T08:29:09;6.07;;;2.28;;
30149;SDS011;16962;48.646;9.026;2023-07-20T08:32:00;3.35;;;2.13;;
30149;SDS011;16962;48.646;9.026;2023-07-20T08:34:57;5.97;;;2.00;;
30149;SDS011;16962;48.646;9.026;2023-07-20T08:37:48;3.88;;;2.15;;
30149;SDS011;16962;48.646;9.026;2023-07-20T08:41:01;6.60;;;2.20;;
30149;SDS011;16962;48.646;9.026;2023-07-20T08:44:42;4.00;;;2.30;;
30149;SDS011;16962;48.646;9.026;2023-07-20T08:47:46;4.50;;;2.42;;
30149;SDS011;16962;48.646;9.026;2023-07-20T08:54:04;4.20;;;2.10;;
30149;SDS011;16962;48.646;9.026;2023-07-20T08:57:22;4.25;;;2.17;;
30149;SDS011;16962;48.646;9.026;2023-07-20T09:00:10;2.67;;;2.00;;
30149;SDS011;16962;48.646;9.026;2023-07-20T09:03:01;10.77;;;1.95;;
30149;SDS011;16962;48.646;9.026;2023-07-20T09:05:50;5.55;;;2.17;;
30149;SDS011;16962;48.646;9.026;2023-07-20T09:08:41;8.38;;;5.38;;
30149;SDS011;16962;48.646;9.026;2023-07-20T09:11:29;8.55;;;4.43;;
30149;SDS011;16962;48.646;9.026;2023-07-20T09:14:18;5.18;;;1.85;;
30149;SDS011;16962;48.646;9.026;2023-07-20T09:17:17;3.25;;;1.60;;
30149;SDS011;16962;48.646;9.026;2023-07-20T09:20:09;3.28;;;1.58;;
30149;SDS011;16962;48.646;9.026;2023-07-20T09:23:36;7.60;;;1.83;;
30149;SDS011;16962;48.646;9.026;2023-07-20T09:30:54;3.65;;;1.52;;
30149;SDS011;16962;48.646;9.026;2023-07-20T09:33:45;5.72;;;1.65;;
30149;SDS011;16962;48.646;9.026;2023-07-20T09:40:59;5.32;;;1.77;;
30149;SDS011;16962;48.646;9.026;2023-07-20T09:43:47;5.60;;;1.65;;
30149;SDS011;16962;48.646;9.026;2023-07-20T09:46:43;4.10;;;1.60;;
30149;SDS011;16962;48.646;9.026;2023-07-20T09:49:41;2.45;;;1.45;;
30149;SDS011;16962;48.646;9.026;2023-07-20T09:52:32;4.50;;;1.30;;
30149;SDS011;16962;48.646;9.026;2023-07-20T09:55:37;2.28;;;1.13;;
30149;SDS011;16962;48.646;9.026;2023-07-20T09:58:29;5.50;;;1.48;;
30149;SDS011;16962;48.646;9.026;2023-07-20T10:01:38;5.30;;;1.38;;
30149;SDS011;16962;48.646;9.026;2023-07-20T10:08:51;4.45;;;1.40;;
30149;SDS011;16962;48.646;9.026;2023-07-20T10:11:58;2.47;;;0.90;;
30149;SDS011;16962;48.646;9.026;2023-07-20T10:19:55;2.53;;;1.58;;
30149;SDS011;16962;48.646;9.026;2023-07-20T10:22:47;2.90;;;1.35;;
30149;SDS011;16962;48.646;9.026;2023-07-20T10:25:46;5.13;;;1.65;;
30149;SDS011;16962;48.646;9.026;2023-07-20T10:28:39;2.55;;;1.38;;
30149;SDS011;16962;48.646;9.026;2023-07-20T10:31:30;3.33;;;1.25;;
30149;SDS011;16962;48.646;9.026;2023-07-20T10:35:51;3.67;;;1.25;;
30149;SDS011;16962;48.646;9.026;2023-07-20T10:38:42;3.40;;;1.08;;
30149;SDS011;16962;48.646;9.026;2023-07-20T10:45:57;1.42;;;1.08;;
30149;SDS011;16962;48.646;9.026;2023-07-20T10:52:16;1.98;;;1.10;;
30149;SDS011;16962;48.646;9.026;2023-07-20T11:02:52;3.15;;;1.15;;
30149;SDS011;16962;48.646;9.026;2023-07-20T11:06:35;2.03;;;1.30;;
30149;SDS011;16962;48.646;9.026;2023-07-20T11:09:39;2.38;;;1.02;;
30149;SDS011;16962;48.646;9.026;2023-07-20T11:12:42;1.48;;;1.13;;
30149;SDS011;16962;48.646;9.026;2023-07-20T11:16:34;1.75;;;1.20;;
30149;SDS011;16962;48.646;9.026;2023-07-20T11:23:58;2.03;;;1.25;;
30149;SDS011;16962;48.646;9.026;2023-07-20T11:34:17;1.75;;;0.93;;
30149;SDS011;16962;48.646;9.026;2023-07-20T11:41:38;2.72;;;1.13;;
30149;SDS011;16962;48.646;9.026;2023-07-20T11:44:51;1.90;;;1.10;;
30149;SDS011;16962;48.646;9.026;2023-07-20T11:54:54;1.48;;;1.20;;
30149;SDS011;16962;48.646;9.026;2023-07-20T11:58:05;2.42;;;1.10;;
30149;SDS011;16962;48.646;9.026;2023-07-20T12:01:00;2.22;;;1.17;;
30149;SDS011;16962;48.646;9.026;2023-07-20T12:03:50;2.05;;;1.17;;
30149;SDS011;16962;48.646;9.026;2023-07-20T12:06:53;1.83;;;1.10;;
30149;SDS011;16962;48.646;9.026;2023-07-20T12:09:42;4.00;;;1.30;;
30149;SDS011;16962;48.646;9.026;2023-07-20T12:12:38;3.60;;;1.20;;
30149;SDS011;16962;48.646;9.026;2023-07-20T12:15:39;1.55;;;1.02;;
30149;SDS011;16962;48.646;9.026;2023-07-20T12:18:34;3.00;;;1.35;;
30149;SDS011;16962;48.646;9.026;2023-07-20T12:21:31;2.42;;;1.30;;
30149;SDS011;16962;48.646;9.026;2023-07-20T12:44:58;1.80;;;0.95;;
30149;SDS011;16962;48.646;9.026;2023-07-20T13:32:32;2.47;;;1.35;;
30149;SDS011;16962;48.646;9.026;2023-07-20T14:04:59;1.70;;;1.25;;
30149;SDS011;16962;48.646;9.026;2023-07-20T14:07:55;2.75;;;1.20;;
30149;SDS011;16962;48.646;9.026;2023-07-20T14:11:34;4.82;;;1.35;;
30149;SDS011;16962;48.646;9.026;2023-07-20T14:17:14;3.72;;;1.13;;
30149;SDS011;16962;48.646;9.026;2023-07-20T14:20:02;1.95;;;1.48;;
30149;SDS011;16962;48.646;9.026;2023-07-20T14:23:08;1.65;;;1.10;;
30149;SDS011;16962;48.646;9.026;2023-07-20T14:29:24;2.42;;;1.30;;
30149;SDS011;16962;48.646;9.026;2023-07-20T14:32:16;1.90;;;1.02;;
30149;SDS011;16962;48.646;9.026;2023-07-20T14:35:22;1.27;;;1.10;;
30149;SDS011;16962;48.646;9.026;2023-07-20T14:42:31;1.35;;;1.20;;
30149;SDS011;16962;48.646;9.026;2023-07-20T14:48:39;2.00;;;1.10;;
30149;SDS011;16962;48.646;9.026;2023-07-20T14:51:37;2.13;;;1.20;;
30149;SDS011;16962;48.646;9.026;2023-07-20T14:54:55;3.70;;;1.60;;
30149;SDS011;16962;48.646;9.026;2023-07-20T14:57:42;1.70;;;1.15;;
30149;SDS011;16962;48.646;9.026;2023-07-20T15:00:31;5.22;;;1.33;;
30149;SDS011;16962;48.646;9.026;2023-07-20T15:03:19;2.45;;;1.02;;
30149;SDS011;16962;48.646;9.026;2023-07-20T15:06:32;3.58;;;1.10;;
30149;SDS011;16962;48.646;9.026;2023-07-20T15:09:26;2.03;;;1.27;;
30149;SDS011;16962;48.646;9.026;2023-07-20T15:12:22;2.13;;;1.23;;
30149;SDS011;16962;48.646;9.026;2023-07-20T15:15:39;1.23;;;1.10;;
30149;SDS011;16962;48.646;9.026;2023-07-20T15:18:34;3.40;;;1.15;;
30149;SDS011;16962;48.646;9.026;2023-07-20T15:21:36;2.60;;;1.40;;
30149;SDS011;16962;48.646;9.026;2023-07-20T15:24:40;5.07;;;1.60;;
30149;SDS011;16962;48.646;9.026;2023-07-20T15:27:52;1.50;;;1.20;;
30149;SDS011;16962;48.646;9.026;2023-07-20T15:34:30;2.15;;;1.25;;
30149;SDS011;16962;48.646;9.026;2023-07-20T15:37:54;3.95;;;1.30;;
30149;SDS011;16962;48.646;9.026;2023-07-20T15:40:43;4.32;;;1.20;;
30149;SDS011;16962;48.646;9.026;2023-07-20T15:43:30;3.42;;;1.05;;
30149;SDS011;16962;48.646;9.026;2023-07-20T15:49:08;1.27;;;0.90;;
30149;SDS011;16962;48.646;9.026;2023-07-20T15:51:55;2.28;;;1.27;;
30149;SDS011;16962;48.646;9.026;2023-07-20T15:54:43;2.17;;;1.33;;
30149;SDS011;16962;48.646;9.026;2023-07-20T15:57:31;3.75;;;1.27;;
30149;SDS011;16962;48.646;9.026;2023-07-20T16:00:20;2.33;;;1.50;;
30149;SDS011;16962;48.646;9.026;2023-07-20T16:03:11;1.20;;;1.10;;
30149;SDS011;16962;48.646;9.026;2023-07-20T16:06:00;2.60;;;1.30;;
30149;SDS011;16962;48.646;9.026;2023-07-20T16:08:54;4.78;;;1.38;;
30149;SDS011;16962;48.646;9.026;2023-07-20T16:11:59;3.05;;;1.27;;
30149;SDS011;16962;48.646;9.026;2023-07-20T16:14:54;2.20;;;1.30;;
30149;SDS011;16962;48.646;9.026;2023-07-20T16:17:49;7.53;;;1.25;;
30149;SDS011;16962;48.646;9.026;2023-07-20T16:20:37;2.63;;;1.20;;
30149;SDS011;16962;48.646;9.026;2023-07-20T16:23:25;1.77;;;1.20;;
30149;SDS011;16962;48.646;9.026;2023-07-20T16:26:12;1.80;;;1.13;;
30149;SDS011;16962;48.646;9.026;2023-07-20T16:29:02;2.45;;;1.38;;
30149;SDS011;16962;48.646;9.026;2023-07-20T16:31:52;5.60;;;1.30;;
30149;SDS011;16962;48.646;9.026;2023-07-20T16:34:43;4.65;;;1.40;;
30149;SDS011;16962;48.646;9.026;2023-07-20T16:37:35;3.88;;;1.23;;
30149;SDS011;16962;48.646;9.026;2023-07-20T16:40:25;1.45;;;1.05;;
30149;SDS011;16962;48.646;9.026;2023-07-20T16:43:15;2.33;;;1.30;;
30149;SDS011;16962;48.646;9.026;2023-07-20T16:46:22;1.35;;;1.10;;
30149;SDS011;16962;48.646;9.026;2023-07-20T16:49:14;3.22;;;1.35;;
30149;SDS011;16962;48.646;9.026;2023-07-20T16:52:02;1.65;;;1.10;;
30149;SDS011;16962;48.646;9.026;2023-07-20T16:54:57;1.60;;;1.05;;
30149;SDS011;16962;48.646;9.026;2023-07-20T16:57:44;2.42;;;1.30;;
30149;SDS011;16962;48.646;9.026;2023-07-20T17:00:32;1.42;;;1.23;;
30149;SDS011;16962;48.646;9.026;2023-07-20T17:03:22;2.90;;;2.25;;
30149;SDS011;16962;48.646;9.026;2023-07-20T17:06:12;2.55;;;1.38;;
30149;SDS011;16962;48.646;9.026;2023-07-20T17:08:59;4.47;;;1.75;;
30149;SDS011;16962;48.646;9.026;2023-07-20T17:11:50;1.92;;;1.13;;
30149;SDS011;16962;48.646;9.026;2023-07-20T17:14:37;1.23;;;1.10;;
30149;SDS011;16962;48.646;9.026;2023-07-20T17:17:25;3.30;;;1.25;;
30149;SDS011;16962;48.646;9.026;2023-07-20T17:20:12;1.65;;;1.40;;
30149;SDS011;16962;48.646;9.026;2023-07-20T17:23:03;2.25;;;1.27;;
30149;SDS011;16962;48.646;9.026;2023-07-20T17:25:51;2.05;;;1.17;;
30149;SDS011;16962;48.646;9.026;2023-07-20T17:28:41;3.78;;;1.40;;
30149;SDS011;16962;48.646;9.026;2023-07-20T17:31:32;2.17;;;1.30;;
30149;SDS011;16962;48.646;9.026;2023-07-20T17:34:20;2.75;;;1.27;;
30149;SDS011;16962;48.646;9.026;2023-07-20T17:37:08;3.30;;;1.25;;
30149;SDS011;16962;48.646;9.026;2023-07-20T17:40:06;1.48;;;1.00;;
30149;SDS011;16962;48.646;9.026;2023-07-20T17:42:59;1.65;;;1.40;;
30149;SDS011;16962;48.646;9.026;2023-07-20T17:45:51;1.33;;;1.20;;
30149;SDS011;16962;48.646;9.026;2023-07-20T17:49:01;1.30;;;1.20;;
30149;SDS011;16962;48.646;9.026;2023-07-20T17:51:50;2.72;;;1.33;;
30149;SDS011;16962;48.646;9.026;2023-07-20T17:54:38;2.05;;;1.15;;
30149;SDS011;16962;48.646;9.026;2023-07-20T17:57:25;1.63;;;1.33;;
30149;SDS011;16962;48.646;9.026;2023-07-20T18:00:13;5.05;;;1.33;;
30149;SDS011;16962;48.646;9.026;2023-07-20T18:03:05;2.78;;;1.70;;
30149;SDS011;16962;48.646;9.026;2023-07-20T18:05:53;3.05;;;1.45;;
30149;SDS011;16962;48.646;9.026;2023-07-20T18:08:42;1.42;;;1.13;;
30149;SDS011;16962;48.646;9.026;2023-07-20T18:11:30;3.72;;;1.50;;
30149;SDS011;16962;48.646;9.026;2023-07-20T18:14:21;4.75;;;1.25;;
30149;SDS011;16962;48.646;9.026;2023-07-20T18:17:08;2.55;;;1.42;;
30149;SDS011;16962;48.646;9.026;2023-07-20T18:19:55;2.42;;;1.42;;
30149;SDS011;16962;48.646;9.026;2023-07-20T18:22:50;2.22;;;1.20;;
30149;SDS011;16962;48.646;9.026;2023-07-20T18:25:45;2.53;;;1.30;;
30149;SDS011;16962;48.646;9.026;2023-07-20T18:28:33;3.50;;;1.60;;
30149;SDS011;16962;48.646;9.026;2023-07-20T18:31:21;2.35;;;1.50;;
30149;SDS011;16962;48.646;9.026;2023-07-20T18:34:09;3.75;;;1.20;;
30149;SDS011;16962;48.646;9.026;2023-07-20T18:36:56;6.35;;;1.40;;
30149;SDS011;16962;48.646;9.026;2023-07-20T18:39:44;1.63;;;1.45;;
30149;SDS011;16962;48.646;9.026;2023-07-20T18:42:34;4.72;;;1.58;;
30149;SDS011;16962;48.646;9.026;2023-07-20T18:45:23;2.42;;;1.40;;
30149;SDS011;16962;48.646;9.026;2023-07-20T18:48:11;2.45;;;1.40;;
30149;SDS011;16962;48.646;9.026;2023-07-20T18:50:59;2.10;;;1.60;;
30149;SDS011;16962;48.646;9.026;2023-07-20T18:53:47;3.08;;;1.50;;
30149;SDS011;16962;48.646;9.026;2023-07-20T18:56:39;3.13;;;1.55;;
30149;SDS011;16962;48.646;9.026;2023-07-20T18:59:27;1.95;;;1.33;;
30149;SDS011;16962;48.646;9.026;2023-07-20T19:02:14;3.72;;;1.30;;
30149;SDS011;16962;48.646;9.026;2023-07-20T19:05:04;1.85;;;1.65;;
30149;SDS011;16962;48.646;9.026;2023-07-20T19:07:53;4.45;;;1.52;;
30149;SDS011;16962;48.646;9.026;2023-07-20T19:10:43;1.80;;;1.40;;
30149;SDS011;16962;48.646;9.026;2023-07-20T19:13:36;5.82;;;1.70;;
30149;SDS011;16962;48.646;9.026;2023-07-20T19:16:27;2.78;;;1.23;;
30149;SDS011;16962;48.646;9.026;2023-07-20T19:19:19;3.67;;;1.52;;
30149;SDS011;16962;48.646;9.026;2023-07-20T19:22:07;4.53;;;1.73;;
30149;SDS011;16962;48.646;9.026;2023-07-20T19:24:55;4.63;;;1.70;;
30149;SDS011;16962;48.646;9.026;2023-07-20T19:27:44;4.60;;;1.60;;
30149;SDS011;16962;48.646;9.026;2023-07-20T19:30:34;2.95;;;1.58;;
30149;SDS011;16962;48.646;9.026;2023-07-20T19:33:22;3.58;;;1.50;;
30149;SDS011;16962;48.646;9.026;2023-07-20T19:39:28;1.35;;;1.08;;
30149;SDS011;16962;48.646;9.026;2023-07-20T19:42:17;5.93;;;1.60;;
30149;SDS011;16962;48.646;9.026;2023-07-20T19:45:08;4.38;;;1.80;;
30149;SDS011;16962;48.646;9.026;2023-07-20T19:47:57;2.42;;;1.40;;
30149;SDS011;16962;48.646;9.026;2023-07-20T19:50:54;4.40;;;1.52;;
30149;SDS011;16962;48.646;9.026;2023-07-20T19:54:09;2.92;;;1.92;;
30149;SDS011;16962;48.646;9.026;2023-07-20T19:57:10;4.90;;;1.83;;
30149;SDS011;16962;48.646;9.026;2023-07-20T20:00:01;2.38;;;1.90;;
30149;SDS011;16962;48.646;9.026;2023-07-20T20:02:57;3.40;;;2.10;;
30149;SDS011;16962;48.646;9.026;2023-07-20T20:05:48;3.20;;;2.15;;
30149;SDS011;16962;48.646;9.026;2023-07-20T20:08:39;7.63;;;1.80;;
30149;SDS011;16962;48.646;9.026;2023-07-20T20:11:26;4.30;;;1.85;;
30149;SDS011;16962;48.646;9.026;2023-07-20T20:14:23;7.07;;;2.47;;
30149;SDS011;16962;48.646;9.026;2023-07-20T20:17:20;6.28;;;2.40;;
30149;SDS011;16962;48.646;9.026;2023-07-20T20:20:44;4.30;;;2.15;;
30149;SDS011;16962;48.646;9.026;2023-07-20T20:23:36;6.88;;;2.83;;
30149;SDS011;16962;48.646;9.026;2023-07-20T20:26:36;8.43;;;2.10;;
30149;SDS011;16962;48.646;9.026;2023-07-20T20:29:30;3.38;;;2.10;;
30149;SDS011;16962;48.646;9.026;2023-07-20T20:32:22;9.35;;;2.22;;
30149;SDS011;16962;48.646;9.026;2023-07-20T20:35:16;9.07;;;2.40;;
30149;SDS011;16962;48.646;9.026;2023-07-20T20:38:07;12.55;;;2.95;;
30149;SDS011;16962;48.646;9.026;2023-07-20T20:41:05;6.75;;;2.13;;
30149;SDS011;16962;48.646;9.026;2023-07-20T20:43:58;5.15;;;2.75;;